createdAt,value
2023-05-23T00:02:08.980Z,9.40
2023-05-23T00:04:37.084Z,8.90
2023-05-23T00:07:05.033Z,10.10
2023-05-23T00:09:32.630Z,11.70
2023-05-23T00:12:00.969Z,10.10
2023-05-23T00:14:31.712Z,8.30
2023-05-23T00:16:59.894Z,10.50
2023-05-23T00:19:27.540Z,10.60
2023-05-23T00:21:58.901Z,6.90
2023-05-23T00:24:27.452Z,9.60
2023-05-23T00:26:55.050Z,9.20
2023-05-23T00:29:22.664Z,11.20
2023-05-23T00:31:51.078Z,9.50
2023-05-23T00:34:19.195Z,9.60
2023-05-23T00:36:48.299Z,9.70
2023-05-23T00:39:21.177Z,10.30
2023-05-23T00:41:52.408Z,10.20
2023-05-23T00:44:21.868Z,9.40
2023-05-23T00:46:54.063Z,10.30
2023-05-23T00:49:22.552Z,10.20
2023-05-23T00:51:50.982Z,10.10
2023-05-23T00:54:19.268Z,10.40
2023-05-23T00:56:47.248Z,10.30
2023-05-23T00:59:15.193Z,9.70
2023-05-23T01:01:44.588Z,9.20
2023-05-23T01:04:13.854Z,10.00
2023-05-23T01:06:41.593Z,7.40
2023-05-23T01:09:09.912Z,8.50
2023-05-23T01:11:45.324Z,8.50
2023-05-23T01:14:19.562Z,6.50
2023-05-23T01:16:58.649Z,7.50
2023-05-23T01:19:36.651Z,9.00
2023-05-23T01:22:09.906Z,7.90
2023-05-23T01:24:55.738Z,9.60
2023-05-23T01:27:56.873Z,7.10
2023-05-23T01:30:26.788Z,12.00
2023-05-23T01:32:54.906Z,11.60
2023-05-23T01:35:27.381Z,6.70
2023-05-23T01:37:56.009Z,10.30
2023-05-23T01:40:24.999Z,6.90
2023-05-23T01:42:53.161Z,8.80
2023-05-23T01:45:22.173Z,8.00
2023-05-23T01:47:50.696Z,7.30
2023-05-23T01:50:18.567Z,10.70
2023-05-23T01:52:47.313Z,9.20
2023-05-23T01:55:16.010Z,7.90
2023-05-23T01:57:44.062Z,9.90
2023-05-23T02:00:12.583Z,7.30
2023-05-23T02:02:43.364Z,8.50
2023-05-23T02:05:14.086Z,10.20
2023-05-23T02:07:41.785Z,9.20
2023-05-23T02:10:10.279Z,8.10
2023-05-23T02:12:39.077Z,7.90
2023-05-23T02:15:07.879Z,9.60
2023-05-23T02:17:35.701Z,8.80
2023-05-23T02:20:04.056Z,12.90
2023-05-23T02:22:32.182Z,10.50
2023-05-23T02:24:59.848Z,8.10
2023-05-23T02:27:28.049Z,8.40
2023-05-23T02:29:56.100Z,8.00
2023-05-23T02:32:24.064Z,10.90
2023-05-23T02:34:53.322Z,7.20
2023-05-23T02:37:22.337Z,9.20
2023-05-23T02:39:50.069Z,10.60
2023-05-23T02:42:17.769Z,11.00
2023-05-23T02:44:46.001Z,8.50
2023-05-23T02:47:13.696Z,13.10
2023-05-23T02:49:41.294Z,12.60
2023-05-23T02:52:09.219Z,9.40
2023-05-23T02:54:36.910Z,9.50
2023-05-23T02:57:05.319Z,8.40
2023-05-23T02:59:33.719Z,10.10
2023-05-23T03:02:01.359Z,10.20
2023-05-23T03:04:29.892Z,9.20
2023-05-23T03:06:59.910Z,10.10
2023-05-23T03:09:27.661Z,11.20
2023-05-23T03:11:55.330Z,11.50
2023-05-23T03:14:23.365Z,8.30
2023-05-23T03:16:51.105Z,10.40
2023-05-23T03:19:18.827Z,8.50
2023-05-23T03:21:46.893Z,10.10
2023-05-23T03:24:14.577Z,9.60
2023-05-23T03:26:42.213Z,8.90
2023-05-23T03:29:11.306Z,13.20
2023-05-23T03:31:39.008Z,11.80
2023-05-23T03:34:06.760Z,10.90
2023-05-23T03:36:35.969Z,11.10
2023-05-23T03:39:04.033Z,9.80
2023-05-23T03:41:31.865Z,8.70
2023-05-23T03:44:01.064Z,13.40
2023-05-23T03:46:28.908Z,11.80
2023-05-23T03:48:56.774Z,14.70
2023-05-23T03:51:24.931Z,14.20
2023-05-23T03:53:52.664Z,13.50
2023-05-23T03:56:20.356Z,17.30
2023-05-23T03:58:48.416Z,14.40
2023-05-23T04:01:17.358Z,16.40
2023-05-23T04:03:46.661Z,13.60
2023-05-23T04:06:15.237Z,13.70
2023-05-23T04:08:45.461Z,13.90
2023-05-23T04:11:13.146Z,10.50
2023-05-23T04:13:43.057Z,12.40
2023-05-23T04:16:12.061Z,14.30
2023-05-23T04:18:40.000Z,11.30
2023-05-23T04:21:08.800Z,12.00
2023-05-23T04:23:40.817Z,15.20
2023-05-23T04:26:10.488Z,12.30
2023-05-23T04:28:46.489Z,14.60
2023-05-23T04:31:15.251Z,13.10
2023-05-23T04:33:43.545Z,13.60
2023-05-23T04:36:12.053Z,13.10
2023-05-23T04:38:42.358Z,13.80
2023-05-23T04:41:13.383Z,16.70
2023-05-23T04:44:07.513Z,15.40
2023-05-23T04:46:50.737Z,15.10
2023-05-23T04:49:25.731Z,15.60
2023-05-23T04:51:53.705Z,12.50
2023-05-23T04:54:45.164Z,14.30
2023-05-23T04:57:13.396Z,14.60
2023-05-23T04:59:42.036Z,15.30
2023-05-23T05:02:10.951Z,14.50
2023-05-23T05:04:39.303Z,14.70
2023-05-23T05:07:07.071Z,15.50
2023-05-23T05:09:35.072Z,12.40
2023-05-23T05:12:02.908Z,14.70
2023-05-23T05:14:31.257Z,15.00
2023-05-23T05:16:59.515Z,12.90
2023-05-23T05:19:34.356Z,13.90
2023-05-23T05:22:02.305Z,14.20
2023-05-23T05:24:33.068Z,12.70
2023-05-23T05:27:00.990Z,12.20
2023-05-23T05:29:29.075Z,14.10
2023-05-23T05:31:56.890Z,13.30
2023-05-23T05:34:24.589Z,12.60
2023-05-23T05:36:56.324Z,15.50
2023-05-23T05:39:26.753Z,12.50
2023-05-23T05:41:55.096Z,13.80
2023-05-23T05:44:23.020Z,12.40
2023-05-23T05:46:52.065Z,14.40
2023-05-23T05:49:20.122Z,12.30
2023-05-23T05:51:47.756Z,11.40
2023-05-23T05:54:17.136Z,14.00
2023-05-23T05:56:47.756Z,13.20
2023-05-23T05:59:15.815Z,12.50
2023-05-23T06:01:45.121Z,14.90
2023-05-23T06:04:12.954Z,14.00
2023-05-23T06:06:40.975Z,13.30
2023-05-23T06:09:09.735Z,13.30
2023-05-23T06:11:41.158Z,18.50
2023-05-23T06:14:09.936Z,16.30
2023-05-23T06:16:40.148Z,19.50
2023-05-23T06:19:08.719Z,20.20
2023-05-23T06:21:37.703Z,18.70
2023-05-23T06:24:06.618Z,20.40
2023-05-23T06:26:34.671Z,19.10
2023-05-23T06:29:02.377Z,19.70
2023-05-23T06:31:30.165Z,18.40
2023-05-23T06:33:59.073Z,19.40
2023-05-23T06:36:26.733Z,23.00
2023-05-23T06:38:56.072Z,23.20
2023-05-23T06:41:24.008Z,25.70
2023-05-23T06:43:52.739Z,26.50
2023-05-23T06:46:24.604Z,24.10
2023-05-23T06:49:02.588Z,23.40
2023-05-23T06:51:40.265Z,20.90
2023-05-23T06:54:08.831Z,21.30
2023-05-23T06:56:36.604Z,20.60
2023-05-23T06:59:05.351Z,22.80
2023-05-23T07:01:33.086Z,22.90
2023-05-23T07:04:00.907Z,19.60
2023-05-23T07:06:28.613Z,20.90
2023-05-23T07:08:56.324Z,19.70
2023-05-23T07:11:24.460Z,23.10
2023-05-23T07:13:56.125Z,24.70
2023-05-23T07:16:41.940Z,31.50
2023-05-23T07:19:09.712Z,20.50
2023-05-23T07:21:42.888Z,20.60
2023-05-23T07:24:10.838Z,17.50
2023-05-23T07:26:38.667Z,18.30
2023-05-23T07:29:07.307Z,16.00
2023-05-23T07:31:36.533Z,15.40
2023-05-23T07:34:04.343Z,14.90
2023-05-23T07:36:41.131Z,15.00
2023-05-23T07:41:39.218Z,11.70
2023-05-23T07:44:07.412Z,10.50
2023-05-23T07:46:35.515Z,11.30
2023-05-23T07:49:03.404Z,9.80
2023-05-23T07:51:31.118Z,9.50
2023-05-23T07:53:59.993Z,9.70
2023-05-23T07:56:27.738Z,9.20
2023-05-23T07:58:56.071Z,8.80
2023-05-23T08:01:25.202Z,8.00
2023-05-23T08:04:18.992Z,9.30
2023-05-23T08:07:00.986Z,9.40
2023-05-23T08:09:44.372Z,10.70
2023-05-23T08:12:14.648Z,11.60
2023-05-23T08:14:50.853Z,14.80
2023-05-23T08:17:30.459Z,13.70
2023-05-23T08:19:58.595Z,14.20
2023-05-23T08:22:26.387Z,12.10
2023-05-23T08:24:54.690Z,11.00
2023-05-23T08:27:22.712Z,11.70
2023-05-23T08:29:53.977Z,10.30
2023-05-23T08:32:23.018Z,9.70
2023-05-23T08:34:50.888Z,10.80
2023-05-23T08:37:18.569Z,10.90
2023-05-23T08:39:46.304Z,9.50
2023-05-23T08:42:43.716Z,10.90
2023-05-23T08:45:12.079Z,13.60
2023-05-23T08:47:42.011Z,10.80
2023-05-23T08:50:12.923Z,12.70
2023-05-23T08:52:45.072Z,13.70
2023-05-23T08:55:13.018Z,15.90
2023-05-23T08:57:43.992Z,14.70
2023-05-23T09:00:31.889Z,11.50
2023-05-23T09:03:00.000Z,8.10
2023-05-23T09:05:42.265Z,8.10
2023-05-23T09:08:11.032Z,7.40
2023-05-23T09:10:40.544Z,7.60
2023-05-23T09:13:10.130Z,6.00
2023-05-23T09:15:38.933Z,7.30
2023-05-23T09:18:06.724Z,5.90
2023-05-23T09:20:35.054Z,5.70
2023-05-23T09:23:08.156Z,7.20
2023-05-23T09:25:40.338Z,7.90
2023-05-23T09:28:08.097Z,6.40
2023-05-23T09:30:36.586Z,6.10
2023-05-23T09:33:05.916Z,7.90
2023-05-23T09:35:34.662Z,6.40
2023-05-23T09:38:02.433Z,7.30
2023-05-23T09:40:32.174Z,6.00
2023-05-23T09:43:05.020Z,6.20
2023-05-23T09:45:32.986Z,6.30
2023-05-23T09:48:01.999Z,5.30
2023-05-23T09:50:34.260Z,7.40
2023-05-23T09:53:03.171Z,7.10
2023-05-23T09:55:31.034Z,4.20
2023-05-23T09:57:59.554Z,5.20
2023-05-23T10:00:27.182Z,5.50
2023-05-23T10:03:14.257Z,5.50
2023-05-23T10:05:48.097Z,4.50
2023-05-23T10:08:27.442Z,3.70
2023-05-23T10:10:58.277Z,4.20
2023-05-23T10:13:27.163Z,4.40
2023-05-23T10:16:29.288Z,6.40
2023-05-23T10:18:58.716Z,6.40
2023-05-23T10:21:46.715Z,6.30
2023-05-23T10:24:14.755Z,5.40
2023-05-23T10:26:43.373Z,5.30
2023-05-23T10:29:11.101Z,6.40
2023-05-23T10:31:38.835Z,5.80
2023-05-23T10:34:27.870Z,6.40
2023-05-23T10:37:08.555Z,5.40
2023-05-23T10:39:58.332Z,4.70
2023-05-23T10:42:31.997Z,3.80
2023-05-23T10:45:45.611Z,4.20
2023-05-23T10:48:29.133Z,3.70
2023-05-23T10:53:54.230Z,4.40
2023-05-23T10:56:25.258Z,4.60
2023-05-23T10:58:55.183Z,5.30
2023-05-23T11:01:24.001Z,5.80
2023-05-23T11:03:55.335Z,5.10
2023-05-23T11:06:38.891Z,8.30
2023-05-23T11:09:21.548Z,4.30
2023-05-23T11:12:03.715Z,4.00
2023-05-23T11:15:45.937Z,4.70
2023-05-23T11:18:31.262Z,4.60
2023-05-23T11:20:58.955Z,4.60
2023-05-23T11:23:42.406Z,3.90
2023-05-23T11:28:57.936Z,3.50
2023-05-23T11:31:26.024Z,6.20
2023-05-23T11:33:53.986Z,3.40
2023-05-23T11:36:22.855Z,5.40
2023-05-23T11:38:52.937Z,3.70
2023-05-23T11:41:20.655Z,4.30
2023-05-23T11:43:52.125Z,4.00
2023-05-23T11:46:20.044Z,5.90
2023-05-23T11:48:48.316Z,4.10
2023-05-23T11:51:16.147Z,3.90
2023-05-23T11:53:43.875Z,4.20
2023-05-23T11:56:11.645Z,3.50
2023-05-23T11:58:39.718Z,3.70
2023-05-23T12:01:08.633Z,3.50
2023-05-23T12:03:49.435Z,3.20
2023-05-23T12:06:21.220Z,3.50
2023-05-23T12:08:49.030Z,4.20
2023-05-23T12:11:16.775Z,3.20
2023-05-23T12:13:45.130Z,2.00
2023-05-23T12:16:14.427Z,2.30
2023-05-23T12:18:42.655Z,4.00
2023-05-23T12:21:10.698Z,2.10
2023-05-23T12:23:39.612Z,3.50
2023-05-23T12:26:07.553Z,2.60
2023-05-23T12:28:36.695Z,2.50
2023-05-23T12:31:21.993Z,2.90
2023-05-23T12:33:53.090Z,3.20
2023-05-23T12:36:29.636Z,3.50
2023-05-23T12:39:05.271Z,3.90
2023-05-23T12:41:33.693Z,3.50
2023-05-23T12:44:02.722Z,3.70
2023-05-23T12:46:30.454Z,3.60
2023-05-23T12:48:58.163Z,3.50
2023-05-23T12:51:26.255Z,4.50
2023-05-23T12:53:55.022Z,4.70
2023-05-23T12:56:22.811Z,4.50
2023-05-23T12:58:50.426Z,3.20
2023-05-23T13:01:18.123Z,6.30
2023-05-23T13:03:45.870Z,3.90
2023-05-23T13:06:13.641Z,3.60
2023-05-23T13:08:41.910Z,5.20
2023-05-23T13:11:09.530Z,3.70
2023-05-23T13:13:37.242Z,4.90
2023-05-23T13:16:05.198Z,4.30
2023-05-23T13:18:32.881Z,3.40
2023-05-23T13:21:00.581Z,4.00
2023-05-23T13:23:28.288Z,4.00
2023-05-23T13:25:56.719Z,4.10
2023-05-23T13:28:24.851Z,4.80
2023-05-23T13:30:52.524Z,5.90
2023-05-23T13:33:20.241Z,4.80
2023-05-23T13:35:49.472Z,5.00
2023-05-23T13:38:20.745Z,5.00
2023-05-23T13:40:50.517Z,6.40
2023-05-23T13:43:19.070Z,5.20
2023-05-23T13:45:47.550Z,5.00
2023-05-23T13:48:15.187Z,5.50
2023-05-23T13:50:43.483Z,5.60
2023-05-23T13:53:15.506Z,7.10
2023-05-23T13:55:43.588Z,5.80
2023-05-23T13:58:11.670Z,5.70
2023-05-23T14:00:40.138Z,5.60
2023-05-23T14:03:09.093Z,5.70
2023-05-23T14:05:37.030Z,5.40
2023-05-23T14:08:04.958Z,6.70
2023-05-23T14:10:33.693Z,6.00
2023-05-23T14:13:01.745Z,6.40
2023-05-23T14:15:30.155Z,5.40
2023-05-23T14:17:58.868Z,5.70
2023-05-23T14:20:26.603Z,6.00
2023-05-23T14:22:54.208Z,6.00
2023-05-23T14:25:22.062Z,6.50
2023-05-23T14:27:49.760Z,6.00
2023-05-23T14:30:17.434Z,5.50
2023-05-23T14:32:45.137Z,5.60
2023-05-23T14:35:12.799Z,5.40
2023-05-23T14:37:40.565Z,6.40
2023-05-23T14:40:10.506Z,6.00
2023-05-23T14:42:38.233Z,6.60
2023-05-23T14:45:06.567Z,6.20
2023-05-23T14:47:34.242Z,7.40
2023-05-23T14:50:02.026Z,6.60
2023-05-23T14:52:29.879Z,7.90
2023-05-23T14:54:57.681Z,9.90
2023-05-23T14:57:25.377Z,7.90
2023-05-23T14:59:53.166Z,9.30
2023-05-23T15:02:20.936Z,9.90
2023-05-23T15:04:48.893Z,8.80
2023-05-23T15:07:18.549Z,8.60
2023-05-23T15:09:47.964Z,11.20
2023-05-23T15:12:15.897Z,9.70
2023-05-23T15:14:43.702Z,8.40
2023-05-23T15:17:13.298Z,10.30
2023-05-23T15:19:43.291Z,7.80
2023-05-23T15:22:18.417Z,10.10
2023-05-23T15:24:50.285Z,7.80
2023-05-23T15:27:20.899Z,8.50
2023-05-23T15:29:48.831Z,8.10
2023-05-23T15:32:16.745Z,10.50
2023-05-23T15:34:44.553Z,10.80
2023-05-23T15:37:12.214Z,9.40
2023-05-23T15:39:39.856Z,9.70
2023-05-23T15:42:07.773Z,9.00
2023-05-23T15:44:35.675Z,7.90
2023-05-23T15:47:03.336Z,9.30
2023-05-23T15:49:31.076Z,10.10
2023-05-23T15:51:58.746Z,11.20
2023-05-23T15:54:26.402Z,9.10
2023-05-23T15:56:54.076Z,8.40
2023-05-23T15:59:21.750Z,7.60
2023-05-23T16:01:49.619Z,9.00
2023-05-23T16:04:17.363Z,8.90
2023-05-23T16:06:44.988Z,10.20
2023-05-23T16:09:12.588Z,8.30
2023-05-23T16:11:40.223Z,6.90
2023-05-23T16:14:07.938Z,6.70
2023-05-23T16:16:35.742Z,5.00
2023-05-23T16:19:03.535Z,4.00
2023-05-23T16:21:31.398Z,3.60
2023-05-23T16:23:59.066Z,4.50
2023-05-23T16:26:27.061Z,4.20
2023-05-23T16:28:54.688Z,3.70
2023-05-23T16:31:27.019Z,3.60
2023-05-23T16:33:54.888Z,3.00
2023-05-23T16:36:23.560Z,3.50
2023-05-23T16:38:52.015Z,4.30
2023-05-23T16:41:21.588Z,3.90
2023-05-23T16:43:49.233Z,3.80
2023-05-23T16:46:18.996Z,5.00
2023-05-23T16:48:48.630Z,4.90
2023-05-23T16:51:16.564Z,4.60
2023-05-23T16:53:44.190Z,5.40
2023-05-23T16:56:11.847Z,4.40
2023-05-23T16:58:39.605Z,8.80
2023-05-23T17:01:08.817Z,7.20
2023-05-23T17:03:36.637Z,6.70
2023-05-23T17:06:04.579Z,7.10
2023-05-23T17:08:32.325Z,6.30
2023-05-23T17:10:59.941Z,7.80
2023-05-23T17:13:27.739Z,8.30
2023-05-23T17:15:55.412Z,6.90
2023-05-23T17:18:23.619Z,5.20
2023-05-23T17:20:51.228Z,5.20
2023-05-23T17:23:19.407Z,4.10
2023-05-23T17:25:47.278Z,4.20
2023-05-23T17:28:14.909Z,3.80
2023-05-23T17:30:42.990Z,3.30
2023-05-23T17:33:13.481Z,3.30
2023-05-23T17:35:41.690Z,3.50
2023-05-23T17:38:09.611Z,3.50
2023-05-23T17:40:37.365Z,3.20
2023-05-23T17:43:05.105Z,4.40
2023-05-23T17:45:32.931Z,19.70
2023-05-23T17:48:03.848Z,20.80
2023-05-23T17:50:31.928Z,18.20
2023-05-23T17:53:00.492Z,19.30
2023-05-23T17:55:29.251Z,38.00
2023-05-23T17:57:56.937Z,39.10
2023-05-23T18:03:10.844Z,5.60
2023-05-23T18:05:38.655Z,4.50
2023-05-23T18:08:06.886Z,6.10
2023-05-23T18:10:34.511Z,4.00
2023-05-23T18:13:02.178Z,4.10
2023-05-23T18:15:31.845Z,4.50
2023-05-23T18:17:59.526Z,4.80
2023-05-23T18:20:27.526Z,4.40
2023-05-23T18:22:55.269Z,5.20
2023-05-23T18:25:29.324Z,4.00
2023-05-23T18:28:01.234Z,4.90
2023-05-23T18:30:28.977Z,3.80
2023-05-23T18:32:59.145Z,4.10
2023-05-23T18:35:27.107Z,6.60
2023-05-23T18:37:54.850Z,5.60
2023-05-23T18:40:24.418Z,6.60
2023-05-23T18:42:52.294Z,6.60
2023-05-23T18:45:20.119Z,4.80
2023-05-23T18:47:47.878Z,5.00
2023-05-23T18:50:15.595Z,7.20
2023-05-23T18:52:43.353Z,6.00
2023-05-23T18:55:11.584Z,5.70
2023-05-23T18:57:39.364Z,6.60
2023-05-23T19:00:11.468Z,6.40
2023-05-23T19:02:44.637Z,6.60
2023-05-23T19:05:12.739Z,6.20
2023-05-23T19:07:41.241Z,5.50
2023-05-23T19:10:09.250Z,6.80
2023-05-23T19:12:39.676Z,8.90
2023-05-23T19:15:10.475Z,6.60
2023-05-23T19:17:39.023Z,5.90
2023-05-23T19:20:08.143Z,9.40
2023-05-23T19:22:50.473Z,4.80
2023-05-23T19:25:21.100Z,7.60
2023-05-23T19:27:48.897Z,5.20
2023-05-23T19:30:16.929Z,5.70
2023-05-23T19:32:44.664Z,6.50
2023-05-23T19:35:16.339Z,6.60
2023-05-23T19:37:45.251Z,5.90
2023-05-23T19:40:13.820Z,6.20
2023-05-23T19:42:41.556Z,9.80
2023-05-23T19:45:09.845Z,6.00
2023-05-23T19:47:38.033Z,6.90
2023-05-23T19:50:15.513Z,5.60
2023-05-23T19:52:43.828Z,7.40
2023-05-23T19:55:11.618Z,5.50
2023-05-23T19:57:39.209Z,5.80
2023-05-23T20:00:10.001Z,6.40
2023-05-23T20:02:37.837Z,5.50
2023-05-23T20:05:07.040Z,7.70
2023-05-23T20:07:36.668Z,5.30
2023-05-23T20:10:04.842Z,6.60
2023-05-23T20:12:32.650Z,6.60
2023-05-23T20:15:00.280Z,6.60
2023-05-23T20:17:29.473Z,7.50
2023-05-23T20:19:57.196Z,6.80
2023-05-23T20:22:24.911Z,5.70
2023-05-23T20:24:52.833Z,7.80
2023-05-23T20:27:20.491Z,7.90
2023-05-23T20:29:48.102Z,7.80
2023-05-23T20:32:15.806Z,6.90
2023-05-23T20:34:43.525Z,6.70
2023-05-23T20:37:13.904Z,8.00
2023-05-23T20:39:41.803Z,6.10
2023-05-23T20:42:15.225Z,7.00
2023-05-23T20:44:43.175Z,8.40
2023-05-23T20:47:13.082Z,8.20
2023-05-23T20:49:42.550Z,10.00
2023-05-23T20:52:10.750Z,12.50
2023-05-23T20:54:38.467Z,9.70
2023-05-23T20:57:06.173Z,9.50
2023-05-23T20:59:33.790Z,8.90
2023-05-23T21:02:01.524Z,9.60
2023-05-23T21:04:29.230Z,10.20
2023-05-23T21:06:56.961Z,10.10
2023-05-23T21:09:24.606Z,11.40
2023-05-23T21:11:52.309Z,9.40
2023-05-23T21:14:19.984Z,10.10
2023-05-23T21:16:47.733Z,9.70
2023-05-23T21:19:15.590Z,9.70
2023-05-23T21:21:43.262Z,11.10
2023-05-23T21:24:10.937Z,11.60
2023-05-23T21:26:38.572Z,10.90
2023-05-23T21:29:06.243Z,10.30
2023-05-23T21:31:41.506Z,14.20
2023-05-23T21:34:22.446Z,15.20
2023-05-23T21:36:52.701Z,13.70
2023-05-23T21:39:20.653Z,12.90
2023-05-23T21:41:48.289Z,14.30
2023-05-23T21:44:17.840Z,14.80
2023-05-23T21:46:45.938Z,11.90
2023-05-23T21:49:13.675Z,15.80
2023-05-23T21:51:41.460Z,14.60
2023-05-23T21:54:09.061Z,14.00
2023-05-23T21:56:36.707Z,14.60
2023-05-23T21:59:04.346Z,15.40
2023-05-23T22:04:00.323Z,15.30
2023-05-23T22:06:28.125Z,14.40
2023-05-23T22:08:56.127Z,14.60
2023-05-23T22:11:23.926Z,13.70
2023-05-23T22:13:51.639Z,13.80
2023-05-23T22:16:19.368Z,13.60
2023-05-23T22:18:51.869Z,11.80
2023-05-23T22:21:19.934Z,13.30
2023-05-23T22:23:47.652Z,13.80
2023-05-23T22:26:15.263Z,12.30
2023-05-23T22:28:42.961Z,12.20
2023-05-23T22:31:12.932Z,13.80
2023-05-23T22:33:41.803Z,13.60
2023-05-23T22:36:10.087Z,11.60
2023-05-23T22:38:38.081Z,14.20
2023-05-23T22:41:05.743Z,11.90
2023-05-23T22:43:33.435Z,12.40
2023-05-23T22:46:01.134Z,12.60
2023-05-23T22:48:28.738Z,12.60
2023-05-23T22:50:57.262Z,13.30
2023-05-23T22:53:24.917Z,12.00
2023-05-23T22:55:52.590Z,12.60
2023-05-23T22:58:20.319Z,12.60
2023-05-23T23:00:47.980Z,13.40
2023-05-23T23:03:16.318Z,14.00
2023-05-23T23:05:44.639Z,15.50
2023-05-23T23:08:12.695Z,13.30
2023-05-23T23:10:41.947Z,14.70
2023-05-23T23:13:09.880Z,18.40
2023-05-23T23:15:37.635Z,15.40
2023-05-23T23:18:06.116Z,15.90
2023-05-23T23:20:33.988Z,16.10
2023-05-23T23:23:01.777Z,16.50
2023-05-23T23:25:30.602Z,17.30
2023-05-23T23:27:58.296Z,16.90
2023-05-23T23:33:26.591Z,17.10
2023-05-23T23:35:54.323Z,18.10
2023-05-23T23:38:21.981Z,20.00
2023-05-23T23:40:49.634Z,19.80
2023-05-23T23:43:17.389Z,19.00
2023-05-23T23:45:45.639Z,16.40
2023-05-23T23:48:14.172Z,19.00
2023-05-23T23:50:42.104Z,19.30
2023-05-23T23:53:10.313Z,18.60
2023-05-23T23:55:37.954Z,19.90
2023-05-23T23:58:05.737Z,18.70
